Time;durP1;ratioP1;P1;durP2;ratioP2;P2;SDS_P1;SDS_P2;PMS_P1;PMS_P2;Temp;Humidity;BMP_temperature;BMP_pressure;BME280_temperature;BME280_humidity;BME280_pressure;Samples;Min_cycle;Max_cycle;Signal;HPM_P1;HPM_P2
2021/05/13 00:00:01;;;;;;;7.10;6.50;;;;;;;16.94;83.16;94076.41;5095278;28;20841;-83
2021/05/13 00:02:29;;;;;;;10.23;8.13;;;;;;;16.98;83.23;94084.81;5096309;28;20514;-83
2021/05/13 00:04:55;;;;;;;8.37;6.93;;;;;;;16.99;82.72;94084.63;5095868;28;20491;-82
2021/05/13 00:07:22;;;;;;;6.83;6.23;;;;;;;17.00;82.82;94085.44;5094886;28;20447;-83
2021/05/13 00:09:49;;;;;;;11.33;6.17;;;;;;;16.95;82.71;94083.34;5096050;28;20450;-83
2021/05/13 00:12:27;;;;;;;6.40;5.80;;;;;;;16.90;82.77;94096.34;5096136;28;20453;-84
2021/05/13 00:14:54;;;;;;;5.43;5.13;;;;;;;16.90;82.79;94091.06;5096299;28;20447;-83
2021/05/13 00:17:20;;;;;;;6.17;5.63;;;;;;;16.87;82.73;94087.97;5095708;28;20447;-82
2021/05/13 00:19:47;;;;;;;6.60;6.00;;;;;;;16.87;82.85;94093.25;5096265;28;20504;-84
2021/05/13 00:22:14;;;;;;;7.03;4.90;;;;;;;16.85;82.77;94093.47;5096761;28;20457;-83
2021/05/13 00:24:40;;;;;;;6.60;5.97;;;;;;;16.84;83.00;94091.00;5096013;28;20483;-83
2021/05/13 00:27:07;;;;;;;5.60;5.10;;;;;;;16.77;82.81;94100.69;5095592;28;20787;-83
2021/05/13 00:29:34;;;;;;;6.53;5.93;;;;;;;16.69;83.27;94094.50;5076540;28;20505;-80
2021/05/13 00:32:00;;;;;;;7.10;6.47;;;;;;;16.70;83.12;94084.72;5095878;28;20439;-84
2021/05/13 00:34:27;;;;;;;7.40;6.73;;;;;;;16.66;82.58;94084.28;5096964;28;20456;-83
2021/05/13 00:36:54;;;;;;;6.00;5.40;;;;;;;16.69;83.00;94093.66;5098936;28;20454;-84
2021/05/13 00:39:20;;;;;;;7.63;6.37;;;;;;;16.71;82.87;94089.00;5105842;28;20429;-83
2021/05/13 00:41:47;;;;;;;9.73;6.80;;;;;;;16.70;82.54;94087.38;5111583;28;20468;-84
2021/05/13 00:44:13;;;;;;;6.97;5.67;;;;;;;16.77;83.18;94093.56;5105953;28;20487;-83
2021/05/13 00:46:39;;;;;;;6.63;6.03;;;;;;;16.71;83.18;94103.06;5107029;28;20511;-84
2021/05/13 00:49:08;;;;;;;7.27;5.73;;;;;;;16.67;83.21;94096.50;5103570;28;20961;-83
2021/05/13 00:51:35;;;;;;;17.80;7.93;;;;;;;16.62;83.27;94090.09;5104636;28;20444;-84
2021/05/13 00:54:04;;;;;;;9.23;6.60;;;;;;;16.60;83.34;94102.72;5086206;28;20451;-83
2021/05/13 00:56:31;;;;;;;8.90;6.23;;;;;;;16.55;83.37;94094.50;5103090;28;20443;-84
2021/05/13 00:59:01;;;;;;;7.00;6.17;;;;;;;16.52;83.45;94085.13;5102964;28;20434;-83
2021/05/13 01:01:38;;;;;;;7.07;6.30;;;;;;;16.49;83.67;94088.13;5107219;28;20442;-82
2021/05/13 01:04:05;;;;;;;8.93;6.60;;;;;;;16.52;83.57;94087.75;5105617;28;20559;-83
2021/05/13 01:06:31;;;;;;;6.33;5.73;;;;;;;16.45;83.80;94083.38;5104115;28;20442;-83
2021/05/13 01:08:57;;;;;;;7.23;6.30;;;;;;;16.41;83.16;94090.88;5104190;28;20448;-83
2021/05/13 01:11:25;;;;;;;5.63;5.17;;;;;;;16.39;84.01;94092.88;5109612;28;20437;-83
2021/05/13 01:13:57;;;;;;;6.40;5.87;;;;;;;16.39;83.57;94091.06;5107101;28;20437;-83
2021/05/13 01:16:27;;;;;;;6.90;6.30;;;;;;;16.37;83.77;94094.91;5104237;28;20453;-82
2021/05/13 01:18:53;;;;;;;6.50;5.80;;;;;;;16.34;84.29;94101.38;5105497;28;20446;-83
2021/05/13 01:21:20;;;;;;;6.77;5.70;;;;;;;16.37;84.48;94095.72;5055317;28;20435;-83
2021/05/13 01:23:47;;;;;;;10.90;6.60;;;;;;;16.40;84.77;94098.00;5106598;28;20486;-83
2021/05/13 01:26:17;;;;;;;6.47;5.43;;;;;;;16.46;85.35;94093.78;5105839;28;20476;-83
2021/05/13 01:28:44;;;;;;;6.10;5.70;;;;;;;16.47;84.89;94090.13;5102330;28;20444;-84
2021/05/13 01:31:10;;;;;;;7.07;6.10;;;;;;;16.48;84.76;94085.63;5098129;28;20499;-83
2021/05/13 01:33:37;;;;;;;11.90;5.67;;;;;;;16.47;84.45;94084.81;5095954;28;20446;-83
2021/05/13 01:36:04;;;;;;;7.67;5.97;;;;;;;16.46;84.28;94077.88;5095749;28;20525;-84
2021/05/13 01:38:31;;;;;;;12.10;6.57;;;;;;;16.51;84.25;94078.19;5095152;28;20442;-85
2021/05/13 01:40:59;;;;;;;8.07;5.90;;;;;;;16.49;83.95;94082.84;5094494;28;20436;-82
2021/05/13 01:43:27;;;;;;;7.90;6.70;;;;;;;16.54;83.50;94083.09;5095113;28;20483;-85
2021/05/13 01:45:53;;;;;;;6.70;6.10;;;;;;;16.56;83.38;94074.97;5057998;28;20449;-83
2021/05/13 01:48:20;;;;;;;6.87;6.13;;;;;;;16.55;83.37;94071.50;5094247;28;20439;-82
2021/05/13 01:50:48;;;;;;;9.53;7.60;;;;;;;16.58;83.07;94071.13;5095018;28;20492;-83
2021/05/13 01:53:15;;;;;;;10.70;6.57;;;;;;;16.56;82.81;94070.47;5095344;28;20448;-83
2021/05/13 01:55:43;;;;;;;9.53;8.57;;;;;;;16.55;82.86;94074.16;5094462;28;20443;-84
2021/05/13 01:58:09;;;;;;;8.53;7.00;;;;;;;16.52;83.09;94071.88;5093715;28;20444;-83
2021/05/13 02:00:36;;;;;;;8.00;7.13;;;;;;;16.51;83.01;94070.22;5094031;28;20455;-85
2021/05/13 02:03:03;;;;;;;9.00;6.30;;;;;;;16.46;83.48;94077.06;5093853;28;20491;-83
2021/05/13 02:05:30;;;;;;;7.13;6.43;;;;;;;16.40;83.01;94076.81;5094036;28;20450;-87
2021/05/13 02:07:56;;;;;;;11.63;6.17;;;;;;;16.31;83.57;94077.94;5093977;28;20443;-84
2021/05/13 02:10:23;;;;;;;7.30;6.60;;;;;;;16.28;83.49;94075.66;5094734;28;20443;-84
2021/05/13 02:12:50;;;;;;;7.20;6.60;;;;;;;16.28;84.18;94080.13;5094762;28;20447;-84
2021/05/13 02:15:18;;;;;;;11.13;7.33;;;;;;;16.30;84.27;94086.06;5093452;28;20437;-84
2021/05/13 02:17:44;;;;;;;8.30;5.83;;;;;;;16.30;84.44;94081.56;5094387;28;20449;-84
2021/05/13 02:20:13;;;;;;;7.93;7.23;;;;;;;16.37;84.43;94079.00;5093739;28;20451;-83
2021/05/13 02:22:40;;;;;;;8.50;7.70;;;;;;;16.36;83.91;94072.06;5093611;28;20455;-83
2021/05/13 02:25:08;;;;;;;10.93;8.87;;;;;;;16.34;84.72;94080.19;5093537;28;20531;-84
2021/05/13 02:27:35;;;;;;;15.23;7.13;;;;;;;16.37;84.08;94084.31;5041370;28;20565;-83
2021/05/13 02:30:04;;;;;;;8.23;7.53;;;;;;;16.40;83.75;94082.09;5093480;28;20509;-85
2021/05/13 02:32:30;;;;;;;8.97;8.03;;;;;;;16.42;83.15;94084.56;5093436;28;20519;-82
2021/05/13 02:34:56;;;;;;;8.43;7.63;;;;;;;16.41;82.74;94086.38;5094032;28;20446;-83
2021/05/13 02:37:22;;;;;;;8.40;7.70;;;;;;;16.45;82.90;94078.88;5094725;28;20448;-85
2021/05/13 02:39:49;;;;;;;10.83;7.20;;;;;;;16.42;82.17;94087.22;5093754;28;20449;-84
2021/05/13 02:42:16;;;;;;;10.50;7.53;;;;;;;16.39;82.72;94074.34;5093614;28;20498;-84
2021/05/13 02:44:43;;;;;;;11.90;8.00;;;;;;;16.42;81.84;94073.97;5093934;28;20491;-85
2021/05/13 02:47:10;;;;;;;13.53;8.80;;;;;;;16.37;81.20;94073.72;5093541;28;20918;-84
2021/05/13 02:49:37;;;;;;;12.60;8.80;;;;;;;16.36;81.91;94077.38;5093473;28;20454;-83
2021/05/13 02:52:04;;;;;;;11.47;8.53;;;;;;;16.37;81.68;94074.53;5094324;28;20510;-84
2021/05/13 02:54:31;;;;;;;10.30;9.20;;;;;;;16.41;81.38;94085.56;5094506;28;20444;-84
2021/05/13 02:56:57;;;;;;;10.10;8.80;;;;;;;16.36;81.11;94082.66;5093441;28;20444;-83
2021/05/13 02:59:31;;;;;;;10.60;8.53;;;;;;;16.36;81.43;94082.66;5093772;28;20444;-85
2021/05/13 03:01:57;;;;;;;11.30;9.10;;;;;;;16.30;81.45;94078.94;5059106;28;20455;-84
2021/05/13 03:04:25;;;;;;;10.43;9.20;;;;;;;16.28;80.91;94078.28;5093594;28;21007;-85
2021/05/13 03:06:51;;;;;;;10.30;9.20;;;;;;;16.28;81.10;94080.13;5094969;28;20452;-83
2021/05/13 03:09:18;;;;;;;9.70;8.53;;;;;;;16.29;81.79;94081.75;5092999;28;20448;-84
2021/05/13 03:11:45;;;;;;;12.20;9.40;;;;;;;16.28;81.22;94080.94;5096788;28;20486;-80
2021/05/13 03:14:11;;;;;;;9.83;8.67;;;;;;;16.29;81.25;94082.59;5097120;28;20539;-84
2021/05/13 03:16:38;;;;;;;7.03;5.83;;;;;;;16.85;78.94;94079.38;5098032;28;20448;-83
2021/05/13 03:19:09;;;;;;;7.93;5.77;;;;;;;17.67;75.90;94086.84;5096691;28;20454;-84
2021/05/13 03:21:38;;;;;;;10.40;5.60;;;;;;;18.49;72.19;94084.28;5096737;28;20952;-87
2021/05/13 03:24:10;;;;;;;10.77;8.55;;;;;;;18.70;70.82;94088.69;5094704;28;20921;-82
2021/05/13 03:26:44;;;;;;;12.57;9.33;;;;;;;18.57;70.32;94082.28;5096322;28;20229;-84
2021/05/13 03:29:10;;;;;;;10.00;8.70;;;;;;;18.38;70.83;94090.16;5096043;28;20444;-83
2021/05/13 03:31:37;;;;;;;9.70;8.47;;;;;;;18.12;71.40;94085.53;5096289;28;20456;-85
2021/05/13 03:34:04;;;;;;;12.53;8.50;;;;;;;17.94;72.29;94078.91;5096435;28;20458;-83
2021/05/13 03:36:31;;;;;;;12.80;9.50;;;;;;;17.76;72.92;94069.78;5096213;28;20858;-83
2021/05/13 03:38:59;;;;;;;8.90;8.00;;;;;;;17.56;73.88;94069.59;5096275;28;20471;-85
2021/05/13 03:41:25;;;;;;;13.50;9.50;;;;;;;17.40;73.99;94069.91;5096634;28;20451;-83
2021/05/13 03:43:52;;;;;;;10.87;8.73;;;;;;;17.22;74.88;94079.13;5096730;28;20485;-84
2021/05/13 03:46:18;;;;;;;10.57;8.20;;;;;;;17.01;76.52;94079.13;5096260;28;20785;-84
2021/05/13 03:48:44;;;;;;;10.00;7.80;;;;;;;16.87;77.21;94072.06;5095935;28;20503;-84
2021/05/13 03:51:11;;;;;;;11.63;8.87;;;;;;;16.78;77.35;94087.28;5096366;28;20444;-82
2021/05/13 03:53:37;;;;;;;12.23;8.50;;;;;;;16.70;78.21;94082.88;5097345;28;20445;-82
2021/05/13 03:56:05;;;;;;;7.10;6.50;;;;;;;16.65;78.02;94087.91;5061525;28;20805;-83
2021/05/13 03:58:35;;;;;;;9.23;6.93;;;;;;;16.61;77.98;94096.41;5096891;28;20450;-84
2021/05/13 04:01:10;;;;;;;12.50;7.60;;;;;;;16.56;78.07;94089.03;5096538;28;20572;-84
2021/05/13 04:03:36;;;;;;;9.40;7.87;;;;;;;16.55;79.01;94091.88;5095707;28;20586;-84
2021/05/13 04:06:02;;;;;;;18.07;8.63;;;;;;;16.50;78.19;94094.25;5094744;28;20505;-85
2021/05/13 04:08:29;;;;;;;11.60;8.30;;;;;;;16.34;78.02;94092.63;5076300;28;20450;-84
2021/05/13 04:10:55;;;;;;;11.50;7.87;;;;;;;16.19;78.44;94097.09;5095679;28;20449;-83
2021/05/13 04:13:23;;;;;;;8.77;7.93;;;;;;;15.97;79.36;94089.09;5059875;28;20464;-83
2021/05/13 04:15:49;;;;;;;9.20;7.97;;;;;;;15.82;80.24;94082.94;5094767;28;20457;-82
2021/05/13 04:18:16;;;;;;;13.63;7.90;;;;;;;15.67;81.01;94076.84;5095538;28;20451;-83
2021/05/13 04:20:45;;;;;;;8.87;6.70;;;;;;;15.55;82.43;94086.16;5095452;28;20448;-84
2021/05/13 04:23:12;;;;;;;10.00;7.40;;;;;;;15.45;83.02;94079.31;5096232;28;20453;-83
2021/05/13 04:25:38;;;;;;;11.43;7.77;;;;;;;15.42;83.23;94087.63;5095370;28;20452;-82
2021/05/13 04:28:05;;;;;;;8.97;7.50;;;;;;;15.36;83.91;94082.22;5094722;28;20458;-84
2021/05/13 04:30:32;;;;;;;8.63;7.40;;;;;;;15.31;83.92;94074.81;5095103;28;20445;-82
2021/05/13 04:32:58;;;;;;;10.63;6.97;;;;;;;15.32;84.32;94088.84;5094728;28;20453;-84
2021/05/13 04:35:26;;;;;;;11.50;8.00;;;;;;;15.36;84.39;94090.97;5095384;28;20450;-83
2021/05/13 04:37:52;;;;;;;16.20;9.20;;;;;;;15.39;85.29;94090.63;5095202;28;20466;-82
2021/05/13 04:40:18;;;;;;;10.20;9.20;;;;;;;15.24;86.36;94087.09;5093650;28;20440;-84
2021/05/13 04:42:45;;;;;;;9.13;8.20;;;;;;;15.06;86.89;94089.25;5092780;28;20471;-81
2021/05/13 04:45:11;;;;;;;11.80;10.43;;;;;;;14.79;88.08;94087.97;5094365;28;20544;-83
2021/05/13 04:48:02;;;;;;;14.30;9.67;;;;;;;14.95;88.50;94095.75;5096127;28;20448;-83
2021/05/13 04:50:28;;;;;;;11.87;10.13;;;;;;;15.11;88.67;94089.53;5065074;28;20537;-83
2021/05/13 04:52:55;;;;;;;12.87;10.60;;;;;;;15.20;88.50;94093.75;5094214;28;20453;-81
2021/05/13 04:55:22;;;;;;;14.87;11.33;;;;;;;15.32;88.87;94080.91;5094393;28;20531;-84
2021/05/13 04:57:51;;;;;;;13.03;11.73;;;;;;;15.43;88.85;94083.97;5094335;28;20449;-82
2021/05/13 05:00:18;;;;;;;17.93;15.10;;;;;;;15.58;89.90;94091.94;5095543;28;20442;-83
2021/05/13 05:02:45;;;;;;;16.77;15.07;;;;;;;15.69;91.19;94085.41;5059496;28;20982;-84
2021/05/13 05:05:12;;;;;;;16.87;15.17;;;;;;;15.78;92.55;94089.63;5057750;28;20479;-83
2021/05/13 05:07:39;;;;;;;18.17;14.90;;;;;;;15.84;92.47;94083.59;5094621;28;20449;-84
2021/05/13 05:10:06;;;;;;;17.77;15.97;;;;;;;15.63;93.81;94089.63;5094117;28;20447;-84
2021/05/13 05:12:32;;;;;;;20.60;18.45;;;;;;;15.66;94.23;94091.91;5058170;28;20498;-82
2021/05/13 05:14:59;;;;;;;18.40;15.40;;;;;;;15.76;93.49;94088.97;5094370;28;20213;-85
2021/05/13 05:17:25;;;;;;;19.83;16.70;;;;;;;15.79;93.19;94089.44;5094549;28;20440;-82
2021/05/13 05:19:52;;;;;;;18.90;15.37;;;;;;;15.85;94.14;94090.53;5094427;28;20455;-82
2021/05/13 05:22:19;;;;;;;21.40;15.60;;;;;;;15.89;92.27;94091.78;5058592;28;20455;-82
2021/05/13 05:24:45;;;;;;;15.67;13.97;;;;;;;16.13;91.78;94090.72;5093714;28;20489;-82
2021/05/13 05:27:11;;;;;;;17.70;14.03;;;;;;;15.99;90.42;94080.97;5094024;28;20456;-84
2021/05/13 05:29:38;;;;;;;14.70;13.20;;;;;;;15.90;91.72;94088.19;5094367;28;20514;-85
2021/05/13 05:32:04;;;;;;;15.43;13.80;;;;;;;16.05;91.99;94085.53;5094693;28;20460;-84
2021/05/13 05:34:31;;;;;;;16.10;12.87;;;;;;;16.14;91.73;94095.00;5094007;28;20491;-84
2021/05/13 05:36:58;;;;;;;16.73;14.17;;;;;;;16.25;92.06;94089.25;5094466;28;20463;-84
2021/05/13 05:39:25;;;;;;;16.90;13.80;;;;;;;16.38;90.79;94099.19;5092917;28;20450;-87
2021/05/13 05:41:53;;;;;;;21.23;14.63;;;;;;;16.61;92.67;94091.94;5094077;28;20466;-85
2021/05/13 05:44:19;;;;;;;18.37;14.30;;;;;;;16.88;91.60;94092.25;5093490;28;20486;-86
2021/05/13 05:46:46;;;;;;;19.50;15.00;;;;;;;17.04;90.05;94092.00;5074295;28;20435;-85
2021/05/13 05:49:12;;;;;;;20.47;15.93;;;;;;;17.12;85.52;94094.53;5093972;28;20448;-85
2021/05/13 05:51:38;;;;;;;20.90;14.93;;;;;;;17.31;86.27;94107.16;5094694;28;20454;-85
2021/05/13 05:54:07;;;;;;;20.93;16.60;;;;;;;17.42;85.93;94103.19;5083954;28;20456;-86
2021/05/13 05:56:33;;;;;;;18.17;15.83;;;;;;;17.56;83.83;94104.09;5076834;28;20444;-84
2021/05/13 05:59:00;;;;;;;20.30;16.90;;;;;;;17.87;80.52;94099.25;5075075;28;20421;-88
2021/05/13 06:01:27;;;;;;;17.57;15.63;;;;;;;18.30;79.54;94098.31;5094434;28;20452;-86
2021/05/13 06:03:54;;;;;;;18.23;15.40;;;;;;;18.62;77.89;94100.31;5092947;28;20488;-84
2021/05/13 06:06:20;;;;;;;33.20;17.20;;;;;;;18.91;73.82;94101.84;5080012;28;20529;-84
2021/05/13 06:08:47;;;;;;;20.70;16.40;;;;;;;19.05;70.37;94105.34;5074720;28;20454;-85
2021/05/13 06:11:14;;;;;;;21.60;17.20;;;;;;;19.05;69.95;94103.50;5074082;28;20454;-85
2021/05/13 06:13:41;;;;;;;19.90;16.73;;;;;;;18.99;69.80;94106.16;5082594;28;20492;-85
2021/05/13 06:16:07;;;;;;;24.30;18.33;;;;;;;18.85;69.82;94113.28;5074544;28;20797;-82
2021/05/13 06:18:48;;;;;;;22.87;17.77;;;;;;;18.62;69.74;94107.44;5073469;28;20775;-84
2021/05/13 06:21:15;;;;;;;20.30;17.97;;;;;;;18.57;71.39;94100.91;5083753;28;20448;-84
2021/05/13 06:23:46;;;;;;;26.13;18.73;;;;;;;18.62;71.12;94102.13;5093081;28;20492;-83
2021/05/13 06:26:24;;;;;;;39.67;18.17;;;;;;;18.58;72.44;94096.41;5093404;28;20455;-82
2021/05/13 06:28:50;;;;;;;20.60;17.10;;;;;;;18.51;71.19;94103.53;5093310;28;20441;-83
2021/05/13 06:31:17;;;;;;;24.90;18.63;;;;;;;18.28;72.52;94101.16;5079418;28;20453;-85
2021/05/13 06:33:43;;;;;;;24.60;18.07;;;;;;;18.11;74.54;94097.16;5073255;28;20446;-83
2021/05/13 06:36:09;;;;;;;21.30;17.47;;;;;;;18.05;74.57;94100.63;5072525;28;20446;-84
2021/05/13 06:38:36;;;;;;;25.00;19.40;;;;;;;17.81;76.33;94097.38;5073022;28;20500;-84
2021/05/13 06:41:05;;;;;;;28.30;22.07;;;;;;;17.73;79.46;94097.53;5072773;28;20923;-84
2021/05/13 06:43:32;;;;;;;26.97;21.07;;;;;;;17.60;81.71;94095.56;5073123;28;20452;-85
2021/05/13 06:45:58;;;;;;;28.90;21.77;;;;;;;17.21;82.97;94098.69;5070097;28;20443;-83
2021/05/13 06:48:25;;;;;;;37.67;24.27;;;;;;;17.09;84.09;94099.41;5077796;28;20448;-84
2021/05/13 06:50:51;;;;;;;28.27;22.43;;;;;;;17.10;84.80;94098.41;5092955;28;20951;-85
2021/05/13 06:53:18;;;;;;;35.03;23.80;;;;;;;17.04;85.38;94089.34;5081621;28;20451;-84
2021/05/13 06:55:45;;;;;;;26.50;21.33;;;;;;;17.05;86.30;94098.94;5077947;28;20565;-83
2021/05/13 06:58:12;;;;;;;38.10;25.00;;;;;;;17.11;85.43;94100.84;5078136;28;20440;-84
2021/05/13 07:00:39;;;;;;;28.97;23.30;;;;;;;17.21;84.89;94109.31;5093363;28;20473;-84
2021/05/13 07:03:06;;;;;;;37.20;25.83;;;;;;;17.23;86.39;94107.28;5097832;28;21000;-84
2021/05/13 07:05:32;;;;;;;35.43;23.50;;;;;;;17.29;84.97;94106.53;5097943;28;20957;-84
2021/05/13 07:07:58;;;;;;;34.27;24.53;;;;;;;17.30;84.77;94105.50;5094982;28;20949;-83
2021/05/13 07:10:25;;;;;;;34.63;24.30;;;;;;;17.48;86.41;94104.25;5087625;28;20470;-82
2021/05/13 07:12:51;;;;;;;32.17;24.53;;;;;;;17.54;83.65;94100.81;5095623;28;20816;-81
2021/05/13 07:15:17;;;;;;;34.53;25.13;;;;;;;17.70;83.65;94103.25;5096698;28;20920;-83
2021/05/13 07:17:45;;;;;;;29.10;23.47;;;;;;;18.01;82.66;94104.69;5089861;28;20502;-86
2021/05/13 07:20:13;;;;;;;23.20;19.80;;;;;;;18.27;77.76;94096.88;5086768;28;20501;-81
2021/05/13 07:22:39;;;;;;;22.90;18.80;;;;;;;18.67;77.29;94086.44;5096160;28;20440;-85
2021/05/13 07:25:06;;;;;;;20.23;16.37;;;;;;;18.56;74.02;94085.97;5090571;28;20489;-85
2021/05/13 07:27:33;;;;;;;19.37;16.47;;;;;;;18.53;72.94;94094.34;5088273;28;20437;-83
2021/05/13 07:30:00;;;;;;;18.90;15.67;;;;;;;18.84;75.72;94085.06;5092134;28;20984;-87
2021/05/13 07:32:26;;;;;;;21.37;17.20;;;;;;;19.30;71.69;94081.66;5088489;28;20454;-87
2021/05/13 07:34:53;;;;;;;21.00;18.57;;;;;;;19.35;70.42;94081.88;5083193;28;20447;-86
2021/05/13 07:37:21;;;;;;;22.43;17.33;;;;;;;19.29;71.32;94078.19;5075839;28;20450;-83
2021/05/13 07:39:48;;;;;;;18.83;16.93;;;;;;;19.36;72.06;94075.53;5076189;28;20447;-83
2021/05/13 07:42:14;;;;;;;25.30;20.40;;;;;;;19.32;72.15;94066.31;5087312;28;20446;-84
2021/05/13 07:44:41;;;;;;;22.60;18.37;;;;;;;19.16;72.66;94070.22;5091189;28;20490;-85
2021/05/13 07:47:09;;;;;;;24.83;20.00;;;;;;;19.02;72.88;94069.34;5075295;28;20437;-83
2021/05/13 07:49:37;;;;;;;26.87;23.63;;;;;;;19.06;73.61;94072.44;5081910;28;20440;-83
2021/05/13 07:52:05;;;;;;;27.20;19.90;;;;;;;19.26;75.01;94070.63;5087120;28;20458;-85
2021/05/13 07:54:31;;;;;;;20.70;18.50;;;;;;;19.60;71.41;94064.31;5088723;28;20461;-84
2021/05/13 07:56:57;;;;;;;19.63;15.83;;;;;;;19.99;69.99;94074.13;5094299;28;20499;-84
2021/05/13 07:59:24;;;;;;;19.13;16.17;;;;;;;20.12;66.51;94062.63;5099196;28;20451;-84
2021/05/13 08:01:50;;;;;;;19.43;17.20;;;;;;;20.26;66.37;94063.41;5094956;28;20927;-82
2021/05/13 08:04:16;;;;;;;22.67;19.10;;;;;;;20.38;69.92;94057.22;5095320;28;20488;-84
2021/05/13 08:06:45;;;;;;;30.43;20.33;;;;;;;20.83;67.93;94053.78;5083317;28;20453;-82
2021/05/13 08:09:12;;;;;;;24.73;17.00;;;;;;;20.98;66.97;94064.97;5074631;28;20499;-85
2021/05/13 08:11:38;;;;;;;17.90;15.60;;;;;;;21.32;65.37;94069.91;5074836;28;20445;-85
2021/05/13 08:14:06;;;;;;;28.60;19.20;;;;;;;21.68;63.39;94062.25;5074859;28;20449;-86
2021/05/13 08:16:33;;;;;;;26.80;18.50;;;;;;;21.43;62.64;94060.41;5075171;28;20437;-85
2021/05/13 08:18:59;;;;;;;19.53;16.33;;;;;;;21.69;62.97;94047.88;5074214;28;20450;-86
2021/05/13 08:21:26;;;;;;;23.83;17.90;;;;;;;21.71;62.15;94061.84;5074983;28;20449;-85
2021/05/13 08:23:52;;;;;;;25.53;16.00;;;;;;;21.51;61.78;94056.66;5074338;28;20457;-84
2021/05/13 08:26:19;;;;;;;22.20;19.10;;;;;;;21.43;62.31;94059.59;5074919;28;20498;-85
2021/05/13 08:28:46;;;;;;;51.13;19.43;;;;;;;21.54;63.13;94051.69;5074702;28;20445;-84
2021/05/13 08:31:12;;;;;;;19.30;17.13;;;;;;;21.52;63.38;94053.75;5089402;28;20459;-82
2021/05/13 08:33:38;;;;;;;22.20;17.63;;;;;;;21.07;63.31;94044.19;5094952;28;20437;-86
2021/05/13 08:36:05;;;;;;;22.07;17.83;;;;;;;20.85;63.99;94035.72;5094468;28;20444;-87
2021/05/13 08:38:31;;;;;;;19.90;16.33;;;;;;;21.09;64.22;94036.78;5094636;28;20448;-85
2021/05/13 08:40:58;;;;;;;21.97;17.47;;;;;;;21.24;64.31;94038.16;5094291;28;20444;-86
2021/05/13 08:43:28;;;;;;;21.73;17.63;;;;;;;21.30;62.06;94033.81;5094574;28;20528;-85
2021/05/13 08:45:56;;;;;;;25.30;17.57;;;;;;;21.08;61.54;94027.97;5093588;28;20487;-84
2021/05/13 08:48:25;;;;;;;19.17;16.03;;;;;;;21.39;64.03;94015.66;5084457;28;20453;-85
2021/05/13 08:50:52;;;;;;;20.63;15.13;;;;;;;21.51;63.99;94028.09;5079293;28;20936;-86
2021/05/13 08:53:18;;;;;;;22.10;15.30;;;;;;;21.46;62.67;94022.59;5073749;28;20936;-85
2021/05/13 08:55:44;;;;;;;18.60;15.00;;;;;;;21.40;63.09;94018.13;5075941;28;20450;-84
2021/05/13 08:58:11;;;;;;;20.63;14.80;;;;;;;21.63;64.37;94015.66;5075301;28;20442;-84
2021/05/13 09:00:39;;;;;;;19.97;15.07;;;;;;;21.82;61.61;94016.53;5094135;28;20536;-85
2021/05/13 09:03:05;;;;;;;21.10;14.33;;;;;;;21.94;62.18;94024.63;5075201;28;20472;-89
2021/05/13 09:05:31;;;;;;;18.33;14.53;;;;;;;21.79;61.35;94018.81;5094572;28;20530;-85
2021/05/13 09:08:04;;;;;;;17.77;15.53;;;;;;;21.47;60.49;94012.75;5063613;28;20519;-86
2021/05/13 09:10:30;;;;;;;17.97;15.00;;;;;;;21.53;62.57;94018.00;5086187;28;20531;-84
2021/05/13 09:12:57;;;;;;;18.37;13.07;;;;;;;21.56;60.99;94022.91;5087081;28;20449;-86
2021/05/13 09:15:24;;;;;;;19.13;13.10;;;;;;;21.37;61.67;94009.72;5084202;28;20456;-86
2021/05/13 09:18:01;;;;;;;13.80;12.40;;;;;;;21.70;63.40;94009.47;5091642;28;20441;-85
2021/05/13 09:20:29;;;;;;;19.77;11.17;;;;;;;21.74;59.68;94003.47;5093749;28;20437;-84
2021/05/13 09:23:11;;;;;;;16.60;12.87;;;;;;;21.62;60.09;94002.53;5093956;28;20443;-86
2021/05/13 09:25:37;;;;;;;13.17;10.77;;;;;;;21.68;59.26;94006.16;5093648;28;20491;-84
2021/05/13 09:28:04;;;;;;;11.67;10.53;;;;;;;21.74;57.72;93997.31;5089348;28;20455;-84
2021/05/13 09:30:30;;;;;;;13.83;10.80;;;;;;;21.59;58.12;93998.44;5085162;28;20457;-83
2021/05/13 09:32:59;;;;;;;13.70;12.37;;;;;;;21.48;57.63;93996.50;5085081;28;20458;-85
2021/05/13 09:35:27;;;;;;;17.93;11.50;;;;;;;21.60;58.67;93996.59;5054744;28;20549;-86
2021/05/13 09:37:55;;;;;;;13.37;11.57;;;;;;;21.49;58.95;93984.78;5073250;28;20470;-85
2021/05/13 09:40:23;;;;;;;14.73;10.40;;;;;;;21.61;57.44;93985.69;5082607;28;20444;-84
2021/05/13 09:43:09;;;;;;;15.00;12.90;;;;;;;21.73;57.80;93979.66;5055318;28;20790;-88
2021/05/13 09:45:43;;;;;;;14.00;12.23;;;;;;;21.51;59.19;93982.72;5093314;28;20489;-88
2021/05/13 09:48:11;;;;;;;14.80;11.93;;;;;;;21.64;60.49;93966.56;5094549;28;21171;-87
2021/05/13 09:50:37;;;;;;;15.60;11.23;;;;;;;21.87;57.59;93970.44;5074598;28;20450;-85
2021/05/13 09:53:03;;;;;;;12.13;10.83;;;;;;;22.09;56.28;93969.00;5080482;28;20441;-87
2021/05/13 09:55:31;;;;;;;17.60;10.63;;;;;;;22.10;56.63;93951.94;5087671;28;20446;-85
2021/05/13 09:58:04;;;;;;;16.33;11.27;;;;;;;22.07;57.88;93960.41;5094312;28;20441;-84
2021/05/13 10:00:40;;;;;;;12.80;10.20;;;;;;;21.58;57.80;93962.09;5094662;28;20952;-85
2021/05/13 10:03:10;;;;;;;15.20;9.60;;;;;;;21.26;57.53;93966.69;5089981;28;20553;-84
2021/05/13 10:05:38;;;;;;;9.90;8.90;;;;;;;21.26;57.92;93961.38;5081343;28;20534;-84
2021/05/13 10:08:05;;;;;;;10.83;8.77;;;;;;;21.57;60.28;93960.47;5085309;28;20451;-87
2021/05/13 10:10:31;;;;;;;18.10;10.57;;;;;;;21.67;58.03;93948.47;5094043;28;20501;-91
2021/05/13 10:12:58;;;;;;;15.70;11.30;;;;;;;21.85;58.39;93951.16;5094360;28;21443;-90
2021/05/13 10:15:26;;;;;;;17.80;8.90;;;;;;;21.85;55.57;93951.97;5075112;28;20441;-89
2021/05/13 10:17:56;;;;;;;13.73;10.30;;;;;;;21.91;56.84;93939.56;5079202;28;20814;-85
2021/05/13 10:20:24;;;;;;;14.40;10.80;;;;;;;21.69;56.02;93939.22;5075585;28;20522;-85
2021/05/13 10:22:51;;;;;;;13.90;10.00;;;;;;;21.87;56.71;93930.38;5087406;28;20453;-84
2021/05/13 10:25:21;;;;;;;19.50;10.50;;;;;;;22.01;55.99;93933.72;5095376;28;21214;-85
2021/05/13 10:27:55;;;;;;;14.00;11.23;;;;;;;21.88;52.73;93930.16;5096974;28;20476;-84
2021/05/13 10:30:26;;;;;;;13.83;10.60;;;;;;;22.04;53.30;93925.28;5096779;28;20450;-83
2021/05/13 10:33:16;;;;;;;13.20;10.77;;;;;;;22.02;50.83;93928.16;5087089;28;20788;-83
2021/05/13 10:36:02;;;;;;;18.43;11.57;;;;;;;22.01;50.95;93933.72;5083280;28;20489;-85
2021/05/13 10:38:50;;;;;;;13.47;9.43;;;;;;;22.20;51.75;93933.50;5096618;28;20456;-84
2021/05/13 10:41:35;;;;;;;15.93;10.97;;;;;;;22.17;52.23;93933.94;5078962;28;20829;-85
2021/05/13 10:44:33;;;;;;;11.20;9.63;;;;;;;22.08;53.35;93924.63;5024801;28;21201;-84
2021/05/13 10:47:00;;;;;;;14.33;10.43;;;;;;;21.64;51.55;93926.50;5073386;28;20454;-85
2021/05/13 10:49:27;;;;;;;9.93;8.43;;;;;;;21.40;48.73;93930.06;5068811;28;20441;-84
2021/05/13 10:51:55;;;;;;;15.90;8.90;;;;;;;21.45;48.06;93930.22;5068047;28;20453;-83
2021/05/13 10:54:45;;;;;;;16.30;10.53;;;;;;;21.51;48.64;93937.34;5074660;28;20461;-82
2021/05/13 10:57:17;;;;;;;10.70;8.70;;;;;;;21.65;50.42;93930.81;5020041;28;20454;-83
2021/05/13 11:00:17;;;;;;;10.63;8.30;;;;;;;21.75;52.51;93924.16;5053694;28;20453;-83
2021/05/13 11:02:45;;;;;;;11.47;9.30;;;;;;;21.81;50.31;93924.06;5053393;28;20466;-83
2021/05/13 11:05:38;;;;;;;17.07;9.67;;;;;;;21.90;51.95;93916.56;5066378;28;20514;-83
2021/05/13 11:08:24;;;;;;;19.33;9.50;;;;;;;22.00;52.07;93911.53;5073083;28;20534;-83
2021/05/13 11:10:57;;;;;;;11.83;9.37;;;;;;;22.07;51.46;93917.66;5066380;28;20947;-84
2021/05/13 11:13:23;;;;;;;11.17;8.30;;;;;;;21.81;50.19;93917.91;5053784;28;20587;-84
2021/05/13 11:15:51;;;;;;;11.10;9.57;;;;;;;21.89;50.37;93909.59;5054658;28;20451;-83
2021/05/13 11:18:26;;;;;;;20.27;12.10;;;;;;;21.85;52.14;93911.91;5054999;28;20447;-81
2021/05/13 11:20:58;;;;;;;18.53;10.17;;;;;;;21.88;52.42;93899.97;5071828;28;20797;-82
2021/05/13 11:23:26;;;;;;;9.63;8.63;;;;;;;21.86;50.55;93902.84;5096204;28;20441;-83
2021/05/13 11:25:55;;;;;;;10.40;7.80;;;;;;;21.77;51.08;93895.38;5093188;28;20498;-83
2021/05/13 11:28:29;;;;;;;9.60;7.73;;;;;;;21.77;51.04;93898.84;5090356;28;20447;-83